createdAt,value
2019-03-24T00:00:28.349Z,983.36
2019-03-24T00:01:41.286Z,983.38
2019-03-24T00:02:51.486Z,983.64
2019-03-24T00:04:01.406Z,983.49
2019-03-24T00:05:11.330Z,983.46
2019-03-24T00:06:21.250Z,983.53
2019-03-24T00:07:31.172Z,983.35
2019-03-24T00:08:41.096Z,983.45
2019-03-24T00:09:51.020Z,983.3
2019-03-24T00:11:00.938Z,983.38
2019-03-24T00:12:10.606Z,983.5
2019-03-24T00:13:20.631Z,983.57
2019-03-24T00:14:32.552Z,983.69
2019-03-24T00:15:42.475Z,983.54
2019-03-24T00:16:52.401Z,983.37
2019-03-24T00:18:02.329Z,983.44
2019-03-24T00:19:12.303Z,983.45
2019-03-24T00:20:22.223Z,983.46
2019-03-24T00:21:32.147Z,983.79
2019-03-24T00:22:41.816Z,983.52
2019-03-24T00:23:51.745Z,983.64
2019-03-24T00:25:01.664Z,983.55
2019-03-24T00:26:11.595Z,983.52
2019-03-24T00:27:23.908Z,983.83
2019-03-24T00:28:33.836Z,983.52
2019-03-24T00:29:43.752Z,983.64
2019-03-24T00:30:53.724Z,983.53
2019-03-24T00:32:03.665Z,983.53
2019-03-24T00:33:13.590Z,983.55
2019-03-24T00:34:23.508Z,983.53
2019-03-24T00:35:33.462Z,983.43
2019-03-24T00:36:43.377Z,983.45
2019-03-24T00:37:53.301Z,983.43
2019-03-24T00:39:03.221Z,983.45
2019-03-24T00:40:13.136Z,983.44
2019-03-24T00:41:23.051Z,983.52
2019-03-24T00:42:32.972Z,983.55
2019-03-24T00:43:42.895Z,983.39
2019-03-24T00:44:52.817Z,983.4
2019-03-24T00:46:02.738Z,983.47
2019-03-24T00:47:12.726Z,983.35
2019-03-24T00:48:22.692Z,983.56
2019-03-24T00:49:32.621Z,983.17
2019-03-24T00:50:42.292Z,983.26
2019-03-24T00:51:52.210Z,983.35
2019-03-24T00:53:02.174Z,983.36
2019-03-24T00:54:12.089Z,983.35
2019-03-24T00:55:22.010Z,983.34
2019-03-24T00:56:31.927Z,983.28
2019-03-24T00:57:41.869Z,983.33
2019-03-24T00:58:51.784Z,983.35
2019-03-24T01:00:01.704Z,983.31
2019-03-24T01:01:11.375Z,983.3
2019-03-24T01:02:21.303Z,983.25
2019-03-24T01:03:31.224Z,983.33
2019-03-24T01:04:41.140Z,983.46
2019-03-24T01:05:51.110Z,983.32
2019-03-24T01:07:02.386Z,983.31
2019-03-24T01:08:12.314Z,983.26
2019-03-24T01:09:22.265Z,983.34
2019-03-24T01:10:32.183Z,983.34
2019-03-24T01:11:42.100Z,983.37
2019-03-24T01:12:52.027Z,983.39
2019-03-24T01:14:01.944Z,983.29
2019-03-24T01:15:11.873Z,983.39
2019-03-24T01:16:21.794Z,983.43
2019-03-24T01:17:31.708Z,983.3
2019-03-24T01:18:41.631Z,983.27
2019-03-24T01:19:51.552Z,983.37
2019-03-24T01:21:01.526Z,983.42
2019-03-24T01:22:11.443Z,983.33
2019-03-24T01:23:21.409Z,983.47
2019-03-24T01:24:31.325Z,983.67
2019-03-24T01:25:41.242Z,983.64
2019-03-24T01:26:51.155Z,983.48
2019-03-24T01:28:01.074Z,983.54
2019-03-24T01:29:10.997Z,983.6
2019-03-24T01:30:20.922Z,983.71
2019-03-24T01:31:30.845Z,983.71
2019-03-24T01:32:40.760Z,983.77
2019-03-24T01:33:50.689Z,983.63
2019-03-24T01:35:00.703Z,983.7
2019-03-24T01:36:10.627Z,983.83
2019-03-24T01:37:20.551Z,983.67
2019-03-24T01:38:30.466Z,983.74
2019-03-24T01:39:40.132Z,983.65
2019-03-24T01:40:50.201Z,983.6
2019-03-24T01:42:00.119Z,983.52
2019-03-24T01:43:10.064Z,983.55
2019-03-24T01:44:19.982Z,983.57
2019-03-24T01:45:29.906Z,983.64
2019-03-24T01:46:39.829Z,983.64
2019-03-24T01:47:49.746Z,983.79
2019-03-24T01:48:59.407Z,983.74
2019-03-24T01:50:09.322Z,983.67
2019-03-24T01:51:19.236Z,983.85
2019-03-24T01:52:29.154Z,983.64
2019-03-24T01:53:39.077Z,983.64
2019-03-24T01:54:48.993Z,983.83
2019-03-24T01:55:58.658Z,983.86
2019-03-24T01:57:08.571Z,983.72
2019-03-24T01:58:18.538Z,983.68
2019-03-24T01:59:28.462Z,983.8
2019-03-24T02:00:38.376Z,983.68
2019-03-24T02:01:48.301Z,984.04
2019-03-24T02:02:57.970Z,983.87
2019-03-24T02:04:07.885Z,983.83
2019-03-24T02:05:17.803Z,983.69
2019-03-24T02:06:27.718Z,983.9
2019-03-24T02:07:39.165Z,983.68
2019-03-24T02:08:48.827Z,983.77
2019-03-24T02:09:58.754Z,983.92
2019-03-24T02:11:08.679Z,983.9
2019-03-24T02:12:18.599Z,983.82
2019-03-24T02:13:28.555Z,983.8
2019-03-24T02:14:38.484Z,983.86
2019-03-24T02:15:48.481Z,983.85
2019-03-24T02:17:09.362Z,984.02
2019-03-24T02:18:19.277Z,983.94
2019-03-24T02:19:29.191Z,983.89
2019-03-24T02:20:39.107Z,983.85
2019-03-24T02:21:49.021Z,983.78
2019-03-24T02:22:58.938Z,983.76
2019-03-24T02:24:08.864Z,983.69
2019-03-24T02:25:18.784Z,983.71
2019-03-24T02:26:28.701Z,983.75
2019-03-24T02:27:38.622Z,983.75
2019-03-24T02:28:48.541Z,983.81
2019-03-24T02:29:58.207Z,983.84
2019-03-24T02:31:08.292Z,983.72
2019-03-24T02:32:18.354Z,983.74
2019-03-24T02:33:28.295Z,983.81
2019-03-24T02:34:38.251Z,983.77
2019-03-24T02:35:48.202Z,983.8
2019-03-24T02:36:58.133Z,983.82
2019-03-24T02:38:07.807Z,983.9
2019-03-24T02:39:17.746Z,983.78
2019-03-24T02:40:27.676Z,983.74
2019-03-24T02:41:37.631Z,983.73
2019-03-24T02:42:47.569Z,983.81
2019-03-24T02:43:57.502Z,983.8
2019-03-24T02:45:07.446Z,983.78
2019-03-24T02:46:23.914Z,983.88
2019-03-24T02:47:34.273Z,983.83
2019-03-24T02:48:44.238Z,983.77
2019-03-24T02:49:54.235Z,983.76
2019-03-24T02:51:03.916Z,983.81
2019-03-24T02:52:13.869Z,983.74
2019-03-24T02:53:23.877Z,983.79
2019-03-24T02:54:33.810Z,983.72
2019-03-24T02:55:43.732Z,983.72
2019-03-24T02:56:53.669Z,983.64
2019-03-24T02:58:03.605Z,983.75
2019-03-24T02:59:13.538Z,983.74
2019-03-24T03:00:23.474Z,983.74
2019-03-24T03:01:33.441Z,983.77
2019-03-24T03:02:43.370Z,983.77
2019-03-24T03:03:53.303Z,983.68
2019-03-24T03:05:02.980Z,983.59
2019-03-24T03:06:12.967Z,983.51
2019-03-24T03:07:22.977Z,983.67
2019-03-24T03:08:32.913Z,983.5
2019-03-24T03:09:42.852Z,983.59
2019-03-24T03:10:52.814Z,983.55
2019-03-24T03:12:02.756Z,983.47
2019-03-24T03:13:12.719Z,983.43
2019-03-24T03:14:22.728Z,983.47
2019-03-24T03:15:32.659Z,983.48
2019-03-24T03:16:42.616Z,983.48
2019-03-24T03:17:52.551Z,983.43
2019-03-24T03:19:02.479Z,983.36
2019-03-24T03:20:12.417Z,983.43
2019-03-24T03:21:22.373Z,983.34
2019-03-24T03:22:32.312Z,983.21
2019-03-24T03:23:42.266Z,983.42
2019-03-24T03:24:52.268Z,983.18
2019-03-24T03:26:02.210Z,983.12
2019-03-24T03:27:12.264Z,983.22
2019-03-24T03:28:22.201Z,983.18
2019-03-24T03:29:32.142Z,983.34
2019-03-24T03:30:42.074Z,983.22
2019-03-24T03:31:52.146Z,983.28
2019-03-24T03:33:02.403Z,983.39
2019-03-24T03:34:12.531Z,983.24
2019-03-24T03:35:22.595Z,983.34
2019-03-24T03:36:32.603Z,983.44
2019-03-24T03:37:42.575Z,983.31
2019-03-24T03:38:52.544Z,983.39
2019-03-24T03:40:02.506Z,983.23
2019-03-24T03:41:12.758Z,983.27
2019-03-24T03:42:22.966Z,983.29
2019-03-24T03:43:32.903Z,983.27
2019-03-24T03:44:42.586Z,983.34
2019-03-24T03:45:52.534Z,983.25
2019-03-24T03:47:02.461Z,983.18
2019-03-24T03:48:12.411Z,983.3
2019-03-24T03:49:22.374Z,983.14
2019-03-24T03:50:32.306Z,983.08
2019-03-24T03:51:42.231Z,983.19
2019-03-24T03:52:52.174Z,983.16
2019-03-24T03:54:02.125Z,983.16
2019-03-24T03:55:11.818Z,983.14
2019-03-24T03:56:21.776Z,983.15
2019-03-24T03:57:31.708Z,983.2
2019-03-24T03:58:41.663Z,983.24
2019-03-24T03:59:51.680Z,983.19
2019-03-24T04:01:01.618Z,983.17
2019-03-24T04:02:11.566Z,983.11
2019-03-24T04:03:21.502Z,983.19
2019-03-24T04:04:31.438Z,983.1
2019-03-24T04:05:41.390Z,983.25
2019-03-24T04:06:51.316Z,983.27
2019-03-24T04:08:01.001Z,983.23
2019-03-24T04:09:10.692Z,983.18
2019-03-24T04:10:20.648Z,983.22
2019-03-24T04:11:30.584Z,983.3
2019-03-24T04:12:40.541Z,983.24
2019-03-24T04:13:50.492Z,983.25
2019-03-24T04:15:00.565Z,983.23
2019-03-24T04:16:10.677Z,983.15
2019-03-24T04:17:20.722Z,983.12
2019-03-24T04:18:30.668Z,983.08
2019-03-24T04:19:40.629Z,983.14
2019-03-24T04:20:50.642Z,983.16
2019-03-24T04:22:00.593Z,983.13
2019-03-24T04:23:10.550Z,983.17
2019-03-24T04:24:20.521Z,983.07
2019-03-24T04:25:30.479Z,983.08
2019-03-24T04:26:40.423Z,983.12
2019-03-24T04:27:50.359Z,983.1
2019-03-24T04:29:00.287Z,983.07
2019-03-24T04:30:10.227Z,983.02
2019-03-24T04:31:20.152Z,982.96
2019-03-24T04:32:30.100Z,982.96
2019-03-24T04:33:39.847Z,983.01
2019-03-24T04:34:49.830Z,983.06
2019-03-24T04:35:59.772Z,983.11
2019-03-24T04:37:09.720Z,983.07
2019-03-24T04:38:19.682Z,983.07
2019-03-24T04:39:29.642Z,983.09
2019-03-24T04:40:39.592Z,983.09
2019-03-24T04:41:49.540Z,983.1
2019-03-24T04:42:59.467Z,983.02
2019-03-24T04:44:09.408Z,983.06
2019-03-24T04:45:19.321Z,983.08
2019-03-24T04:46:29.245Z,983.02
2019-03-24T04:47:39.203Z,983
2019-03-24T04:48:49.124Z,982.98
2019-03-24T04:49:59.042Z,982.93
2019-03-24T04:51:08.964Z,982.88
2019-03-24T04:52:18.995Z,982.85
2019-03-24T04:53:28.917Z,982.89
2019-03-24T04:54:38.834Z,982.82
2019-03-24T04:55:48.761Z,982.76
2019-03-24T04:56:58.811Z,982.74
2019-03-24T04:58:08.742Z,982.68
2019-03-24T04:59:18.669Z,982.7
2019-03-24T05:00:28.589Z,982.67
2019-03-24T05:01:38.509Z,982.62
2019-03-24T05:02:48.463Z,982.62
2019-03-24T05:03:58.396Z,982.63
2019-03-24T05:05:08.102Z,982.65
2019-03-24T05:06:18.041Z,982.61
2019-03-24T05:07:27.982Z,982.55
2019-03-24T05:08:37.897Z,982.57
2019-03-24T05:09:47.865Z,982.49
2019-03-24T05:10:59.651Z,982.5
2019-03-24T05:12:09.570Z,982.52
2019-03-24T05:13:19.488Z,982.5
2019-03-24T05:14:29.409Z,982.5
2019-03-24T05:15:39.373Z,982.44
2019-03-24T05:16:49.290Z,982.4
2019-03-24T05:17:59.208Z,982.47
2019-03-24T05:19:09.125Z,982.47
2019-03-24T05:20:19.049Z,982.47
2019-03-24T05:21:28.970Z,982.47
2019-03-24T05:22:38.891Z,982.46
2019-03-24T05:23:48.804Z,982.44
2019-03-24T05:24:58.717Z,982.54
2019-03-24T05:26:08.646Z,982.46
2019-03-24T05:27:18.676Z,982.48
2019-03-24T05:28:28.599Z,982.43
2019-03-24T05:29:38.513Z,982.44
2019-03-24T05:30:48.429Z,982.4
2019-03-24T05:31:58.340Z,982.33
2019-03-24T05:33:08.260Z,982.3
2019-03-24T05:34:18.170Z,982.35
2019-03-24T05:35:28.091Z,982.37
2019-03-24T05:36:38.018Z,982.32
2019-03-24T05:37:47.936Z,982.34
2019-03-24T05:38:57.856Z,982.4
2019-03-24T05:40:07.791Z,982.41
2019-03-24T05:41:17.703Z,982.39
2019-03-24T05:42:27.622Z,982.33
2019-03-24T05:43:37.595Z,982.37
2019-03-24T05:44:47.567Z,982.32
2019-03-24T05:45:57.480Z,982.28
2019-03-24T05:47:07.407Z,982.29
2019-03-24T05:48:17.323Z,982.28
2019-03-24T05:49:27.240Z,982.29
2019-03-24T05:50:37.159Z,982.23
2019-03-24T05:51:47.102Z,982.25
2019-03-24T05:52:57.051Z,982.14
2019-03-24T05:54:07.157Z,982.27
2019-03-24T05:55:17.087Z,982.15
2019-03-24T05:56:27.152Z,982.1
2019-03-24T05:57:37.066Z,982.25
2019-03-24T05:58:46.982Z,982.32
2019-03-24T05:59:56.907Z,982.25
2019-03-24T06:01:06.823Z,982.16
2019-03-24T06:02:16.816Z,982.13
2019-03-24T06:03:26.477Z,982.17
2019-03-24T06:04:36.397Z,982.15
2019-03-24T06:05:46.310Z,982.15
2019-03-24T06:06:56.231Z,982.11
2019-03-24T06:08:06.153Z,982.08
2019-03-24T06:09:16.070Z,982.08
2019-03-24T06:10:25.987Z,982.12
2019-03-24T06:11:35.908Z,982.07
2019-03-24T06:12:45.825Z,981.99
2019-03-24T06:13:55.738Z,981.95
2019-03-24T06:15:05.660Z,981.98
2019-03-24T06:16:15.577Z,982.05
2019-03-24T06:17:25.503Z,982.05
2019-03-24T06:18:35.421Z,982.16
2019-03-24T06:19:45.442Z,981.98
2019-03-24T06:20:55.360Z,982.01
2019-03-24T06:22:05.286Z,982.16
2019-03-24T06:23:15.235Z,982.11
2019-03-24T06:24:25.147Z,982.1
2019-03-24T06:25:35.122Z,982.06
2019-03-24T06:26:45.047Z,982.07
2019-03-24T06:27:54.978Z,982.17
2019-03-24T06:29:04.895Z,982.23
2019-03-24T06:30:14.818Z,982.06
2019-03-24T06:31:24.735Z,982.09
2019-03-24T06:32:34.674Z,982.02
2019-03-24T06:33:44.598Z,982.04
2019-03-24T06:34:54.518Z,982.02
2019-03-24T06:36:04.434Z,982.04
2019-03-24T06:37:14.407Z,982
2019-03-24T06:38:24.120Z,982.03
2019-03-24T06:39:34.054Z,981.97
2019-03-24T06:40:43.976Z,981.94
2019-03-24T06:41:53.898Z,981.88
2019-03-24T06:43:03.813Z,981.84
2019-03-24T06:44:13.730Z,981.86
2019-03-24T06:45:28.173Z,981.85
2019-03-24T06:46:38.509Z,981.82
2019-03-24T06:47:57.525Z,981.82
2019-03-24T06:49:07.789Z,981.86
2019-03-24T06:50:17.743Z,981.88
2019-03-24T06:51:27.665Z,981.84
2019-03-24T06:52:37.585Z,981.83
2019-03-24T06:53:47.643Z,981.81
2019-03-24T06:54:57.563Z,981.76
2019-03-24T06:56:07.478Z,981.71
2019-03-24T06:57:17.393Z,981.73
2019-03-24T06:58:27.304Z,981.71
2019-03-24T06:59:37.228Z,981.71
2019-03-24T07:00:47.149Z,981.72
2019-03-24T07:01:57.070Z,981.69
2019-03-24T07:03:06.985Z,981.68
2019-03-24T07:04:16.905Z,981.66
2019-03-24T07:05:26.821Z,981.71
2019-03-24T07:06:36.743Z,981.62
2019-03-24T07:07:46.668Z,981.64
2019-03-24T07:08:56.584Z,981.55
2019-03-24T07:10:06.504Z,981.53
2019-03-24T07:11:16.488Z,981.57
2019-03-24T07:12:26.409Z,981.5
2019-03-24T07:13:36.348Z,981.49
2019-03-24T07:14:46.266Z,981.52
2019-03-24T07:15:56.186Z,981.5
2019-03-24T07:17:05.850Z,981.55
2019-03-24T07:18:15.771Z,981.53
2019-03-24T07:19:25.696Z,981.53
2019-03-24T07:20:35.618Z,981.45
2019-03-24T07:21:45.546Z,981.48
2019-03-24T07:22:55.469Z,981.56
2019-03-24T07:24:05.383Z,981.51
2019-03-24T07:25:15.306Z,981.5
2019-03-24T07:26:24.969Z,981.47
2019-03-24T07:27:34.888Z,981.52
2019-03-24T07:28:44.930Z,981.51
2019-03-24T07:29:54.842Z,981.51
2019-03-24T07:31:04.770Z,981.39
2019-03-24T07:32:14.685Z,981.46
2019-03-24T07:33:24.602Z,981.46
2019-03-24T07:34:34.281Z,981.35
2019-03-24T07:35:44.223Z,981.41
2019-03-24T07:36:54.185Z,981.41
2019-03-24T07:38:04.102Z,981.38
2019-03-24T07:39:14.026Z,981.25
2019-03-24T07:40:23.943Z,981.27
2019-03-24T07:41:33.900Z,981.16
2019-03-24T07:42:43.815Z,981.17
2019-03-24T07:43:53.731Z,981.08
2019-03-24T07:45:03.648Z,981.06
2019-03-24T07:46:13.627Z,981.03
2019-03-24T07:47:23.545Z,980.98
2019-03-24T07:48:33.462Z,980.98
2019-03-24T07:49:43.385Z,980.98
2019-03-24T07:50:53.305Z,980.95
2019-03-24T07:52:03.226Z,980.97
2019-03-24T07:53:13.143Z,980.98
2019-03-24T07:54:23.066Z,981.08
2019-03-24T07:55:32.991Z,981.07
2019-03-24T07:56:42.915Z,981.11
2019-03-24T07:57:52.829Z,981.08
2019-03-24T07:59:02.758Z,981.07
2019-03-24T08:00:12.680Z,981.13
2019-03-24T08:01:22.601Z,981.08
2019-03-24T08:02:32.526Z,981.15
2019-03-24T08:03:51.533Z,981.17
2019-03-24T08:05:01.478Z,981.13
2019-03-24T08:06:11.403Z,981.11
2019-03-24T08:07:21.328Z,981.23
2019-03-24T08:08:31.252Z,981.17
2019-03-24T08:09:49.291Z,981.15
2019-03-24T08:10:59.216Z,981.23
2019-03-24T08:12:09.135Z,981.22
2019-03-24T08:13:19.055Z,981.22
2019-03-24T08:14:28.989Z,981.29
2019-03-24T08:15:38.945Z,981.17
2019-03-24T08:16:48.870Z,981.19
2019-03-24T08:17:58.788Z,981.17
2019-03-24T08:19:08.704Z,981.12
2019-03-24T08:20:18.628Z,981.09
2019-03-24T08:21:28.595Z,981.07
2019-03-24T08:22:38.510Z,981.02
2019-03-24T08:23:48.430Z,981.07
2019-03-24T08:24:58.350Z,981.07
2019-03-24T08:26:08.280Z,981.03
2019-03-24T08:27:18.206Z,981.05
2019-03-24T08:28:28.131Z,981.11
2019-03-24T08:29:38.044Z,981.07
2019-03-24T08:30:47.960Z,981.14
2019-03-24T08:31:57.882Z,981.03
2019-03-24T08:33:07.649Z,981.05
2019-03-24T08:34:17.572Z,981.02
2019-03-24T08:35:27.498Z,980.98
2019-03-24T08:36:37.477Z,980.99
2019-03-24T08:37:47.403Z,981.02
2019-03-24T08:38:57.382Z,981.02
2019-03-24T08:40:07.312Z,981.03
2019-03-24T08:41:17.254Z,980.93
2019-03-24T08:42:27.169Z,981.09
2019-03-24T08:43:37.101Z,981.23
2019-03-24T08:44:47.130Z,981.03
2019-03-24T08:45:57.057Z,981.03
2019-03-24T08:47:06.977Z,981.13
2019-03-24T08:48:16.911Z,981.03
2019-03-24T08:49:26.832Z,980.97
2019-03-24T08:50:36.757Z,980.98
2019-03-24T08:51:46.683Z,980.97
2019-03-24T08:52:58.809Z,980.99
2019-03-24T08:54:08.478Z,980.94
2019-03-24T08:55:18.407Z,980.98
2019-03-24T08:56:28.412Z,980.86
2019-03-24T08:57:38.372Z,980.8
2019-03-24T08:58:48.298Z,980.78
2019-03-24T08:59:58.280Z,980.76
2019-03-24T09:01:09.278Z,980.75
2019-03-24T09:02:19.212Z,980.72
2019-03-24T09:03:28.884Z,980.71
2019-03-24T09:04:40.347Z,980.7
2019-03-24T09:05:50.263Z,980.66
2019-03-24T09:07:00.203Z,980.64
2019-03-24T09:08:10.178Z,980.63
2019-03-24T09:09:20.097Z,980.66
2019-03-24T09:10:30.017Z,980.55
2019-03-24T09:11:39.941Z,980.59
2019-03-24T09:12:49.867Z,980.56
2019-03-24T09:13:59.844Z,980.59
2019-03-24T09:15:09.769Z,980.54
2019-03-24T09:16:19.702Z,980.49
2019-03-24T09:17:29.642Z,980.47
2019-03-24T09:18:51.913Z,980.48
2019-03-24T09:20:02.324Z,980.5
2019-03-24T09:21:12.247Z,980.5
2019-03-24T09:22:24.760Z,980.49
2019-03-24T09:23:34.693Z,980.46
2019-03-24T09:24:44.619Z,980.43
2019-03-24T09:25:54.554Z,980.34
2019-03-24T09:27:04.486Z,980.4
2019-03-24T09:28:14.412Z,980.34
2019-03-24T09:29:24.337Z,980.3
2019-03-24T09:30:34.315Z,980.3
2019-03-24T09:31:44.242Z,980.29
2019-03-24T09:32:54.168Z,980.29
2019-03-24T09:34:04.096Z,980.35
2019-03-24T09:35:14.019Z,980.29
2019-03-24T09:36:23.944Z,980.34
2019-03-24T09:37:33.866Z,980.34
2019-03-24T09:38:43.792Z,980.29
2019-03-24T09:39:53.713Z,980.28
2019-03-24T09:41:03.637Z,980.29
2019-03-24T09:42:13.567Z,980.31
2019-03-24T09:43:23.495Z,980.24
2019-03-24T09:44:33.415Z,980.23
2019-03-24T09:45:43.377Z,980.19
2019-03-24T09:46:53.309Z,980.18
2019-03-24T09:48:03.283Z,980.24
2019-03-24T09:49:13.203Z,980.19
2019-03-24T09:50:23.130Z,980.18
2019-03-24T09:51:33.056Z,980.15
2019-03-24T09:52:42.969Z,980.11
2019-03-24T09:53:52.890Z,980.05
2019-03-24T09:55:02.824Z,980.04
2019-03-24T09:56:12.747Z,980.03
2019-03-24T09:57:22.668Z,980.06
2019-03-24T09:58:32.598Z,980.03
2019-03-24T09:59:42.519Z,980.07
2019-03-24T10:00:52.450Z,980.01
2019-03-24T10:02:02.383Z,980.03
2019-03-24T10:03:12.064Z,980.04
2019-03-24T10:04:21.985Z,979.99
2019-03-24T10:05:31.947Z,980
2019-03-24T10:06:41.867Z,980.03
2019-03-24T10:07:51.797Z,980.02
2019-03-24T10:09:01.735Z,980.08
2019-03-24T10:10:11.654Z,979.96
2019-03-24T10:11:21.600Z,980.02
2019-03-24T10:12:31.523Z,980
2019-03-24T10:13:41.451Z,980
2019-03-24T10:14:51.117Z,980.02
2019-03-24T10:16:01.045Z,980.04
2019-03-24T10:17:10.734Z,980.02
2019-03-24T10:18:20.676Z,980.01
2019-03-24T10:19:30.595Z,980.03
2019-03-24T10:20:40.518Z,980.01
2019-03-24T10:21:50.190Z,980.03
2019-03-24T10:23:00.189Z,980.07
2019-03-24T10:24:10.154Z,979.96
2019-03-24T10:25:20.074Z,979.99
2019-03-24T10:26:29.995Z,979.95
2019-03-24T10:27:39.925Z,979.95
2019-03-24T10:28:49.847Z,979.94
2019-03-24T10:29:59.767Z,979.94
2019-03-24T10:31:09.476Z,979.93
2019-03-24T10:32:19.403Z,979.9
2019-03-24T10:33:29.319Z,979.9
2019-03-24T10:34:39.339Z,979.89
2019-03-24T10:35:49.261Z,979.9
2019-03-24T10:36:59.185Z,979.88
2019-03-24T10:38:09.108Z,979.87
2019-03-24T10:39:19.046Z,979.84
2019-03-24T10:40:29.239Z,979.86
2019-03-24T10:41:39.197Z,979.84
2019-03-24T10:42:49.116Z,979.83
2019-03-24T10:43:59.042Z,979.8
2019-03-24T10:45:08.972Z,979.77
2019-03-24T10:46:18.899Z,979.8
2019-03-24T10:47:28.830Z,979.73
2019-03-24T10:48:38.760Z,979.71
2019-03-24T10:49:48.683Z,979.64
2019-03-24T10:50:58.601Z,979.67
2019-03-24T10:52:08.536Z,979.62
2019-03-24T10:53:18.459Z,979.65
2019-03-24T10:54:28.377Z,979.64
2019-03-24T10:55:38.298Z,979.63
2019-03-24T10:56:48.220Z,979.63
2019-03-24T10:57:58.239Z,979.63
2019-03-24T10:59:08.165Z,979.59
2019-03-24T11:00:18.083Z,979.6
2019-03-24T11:01:28.009Z,979.61
2019-03-24T11:02:37.930Z,979.54
2019-03-24T11:03:47.949Z,979.58
2019-03-24T11:04:57.869Z,979.62
2019-03-24T11:06:07.885Z,979.61
2019-03-24T11:07:17.805Z,979.56
2019-03-24T11:08:27.725Z,979.59
2019-03-24T11:09:37.645Z,979.47
2019-03-24T11:10:48.009Z,979.43
2019-03-24T11:11:57.949Z,979.46
2019-03-24T11:13:07.896Z,979.42
2019-03-24T11:14:17.828Z,979.34
2019-03-24T11:15:27.798Z,979.28
2019-03-24T11:16:37.721Z,979.26
2019-03-24T11:17:47.423Z,979.31
2019-03-24T11:18:57.346Z,979.34
2019-03-24T11:20:07.285Z,979.31
2019-03-24T11:21:17.337Z,979.3
2019-03-24T11:22:27.262Z,979.31
2019-03-24T11:23:37.201Z,979.31
2019-03-24T11:24:47.130Z,979.31
2019-03-24T11:25:57.051Z,979.25
2019-03-24T11:27:07.125Z,979.21
2019-03-24T11:28:19.114Z,979.28
2019-03-24T11:29:29.153Z,979.18
2019-03-24T11:30:39.082Z,979.25
2019-03-24T11:31:49.016Z,979.16
2019-03-24T11:32:59.043Z,979.17
2019-03-24T11:34:08.984Z,979.13
2019-03-24T11:35:18.924Z,979.12
2019-03-24T11:36:28.849Z,979.07
2019-03-24T11:37:38.773Z,979.1
2019-03-24T11:38:48.794Z,979.12
2019-03-24T11:39:59.663Z,979.09
2019-03-24T11:41:09.588Z,979.13
2019-03-24T11:42:19.513Z,979.12
2019-03-24T11:43:29.441Z,979.13
2019-03-24T11:44:39.368Z,979.16
2019-03-24T11:45:49.290Z,979.16
2019-03-24T11:46:59.213Z,979.2
2019-03-24T11:48:09.136Z,979.16
2019-03-24T11:49:19.114Z,979.16
2019-03-24T11:50:29.089Z,979.15
2019-03-24T11:51:39.018Z,979.06
2019-03-24T11:52:48.951Z,979.07
2019-03-24T11:53:58.869Z,979.05
2019-03-24T11:55:08.788Z,979.03
2019-03-24T11:56:18.807Z,979
2019-03-24T11:57:28.729Z,978.94
2019-03-24T11:58:38.444Z,978.98
2019-03-24T11:59:48.677Z,979
2019-03-24T12:00:58.613Z,978.96
2019-03-24T12:02:08.550Z,978.9
2019-03-24T12:03:18.269Z,978.83
2019-03-24T12:04:30.411Z,978.81
2019-03-24T12:05:40.390Z,978.79
2019-03-24T12:06:50.314Z,978.73
2019-03-24T12:08:00.204Z,978.63
2019-03-24T12:09:10.129Z,978.68
2019-03-24T12:10:20.062Z,978.62
2019-03-24T12:11:29.986Z,978.59
2019-03-24T12:12:39.907Z,978.52
2019-03-24T12:13:49.828Z,978.53
2019-03-24T12:14:59.755Z,978.48
2019-03-24T12:16:10.683Z,978.54
2019-03-24T12:17:20.659Z,978.52
2019-03-24T12:18:30.578Z,978.5
2019-03-24T12:19:40.504Z,978.49
2019-03-24T12:20:59.596Z,978.5
2019-03-24T12:22:09.517Z,978.48
2019-03-24T12:23:20.993Z,978.53
2019-03-24T12:24:30.778Z,978.56
2019-03-24T12:25:40.757Z,978.55
2019-03-24T12:26:50.677Z,978.57
2019-03-24T12:28:00.606Z,978.55
2019-03-24T12:29:10.531Z,978.57
2019-03-24T12:30:20.467Z,978.56
2019-03-24T12:31:30.492Z,978.57
2019-03-24T12:32:40.417Z,978.59
2019-03-24T12:33:50.345Z,978.53
2019-03-24T12:35:00.337Z,978.52
2019-03-24T12:36:10.047Z,978.52
2019-03-24T12:37:20.075Z,978.51
2019-03-24T12:38:29.752Z,978.52
2019-03-24T12:39:39.675Z,978.52
2019-03-24T12:40:49.599Z,978.53
2019-03-24T12:41:59.523Z,978.48
2019-03-24T12:43:18.834Z,978.42
2019-03-24T12:44:29.437Z,978.46
2019-03-24T12:45:39.116Z,978.46
2019-03-24T12:46:49.053Z,978.4
2019-03-24T12:47:58.985Z,978.33
2019-03-24T12:49:09.198Z,978.29
2019-03-24T12:50:30.529Z,978.27
2019-03-24T12:51:40.849Z,978.24
2019-03-24T12:52:50.771Z,978.2
2019-03-24T12:54:00.699Z,978.22
2019-03-24T12:55:10.639Z,978.2
2019-03-24T12:56:20.570Z,978.15
2019-03-24T12:57:30.494Z,978.22
2019-03-24T12:58:40.430Z,978.17
2019-03-24T12:59:50.400Z,978.13
2019-03-24T13:01:00.323Z,978.09
2019-03-24T13:02:10.253Z,978.09
2019-03-24T13:03:20.183Z,978.1
2019-03-24T13:04:29.861Z,978.06
2019-03-24T13:05:39.908Z,978.01
2019-03-24T13:06:49.841Z,978.04
2019-03-24T13:07:59.777Z,978.01
2019-03-24T13:09:10.558Z,977.97
2019-03-24T13:10:20.250Z,978.02
2019-03-24T13:11:30.284Z,977.99
2019-03-24T13:12:40.217Z,977.9
2019-03-24T13:13:50.149Z,977.97
2019-03-24T13:15:00.180Z,977.91
2019-03-24T13:16:10.319Z,977.87
2019-03-24T13:17:20.398Z,977.85
2019-03-24T13:18:30.349Z,977.84
2019-03-24T13:19:40.330Z,977.82
2019-03-24T13:20:50.273Z,977.87
2019-03-24T13:22:00.222Z,977.78
2019-03-24T13:23:10.279Z,977.78
2019-03-24T13:24:20.237Z,977.77
2019-03-24T13:25:30.195Z,977.79
2019-03-24T13:26:41.661Z,977.79
2019-03-24T13:27:51.605Z,977.76
2019-03-24T13:29:01.654Z,977.77
2019-03-24T13:30:11.601Z,977.77
2019-03-24T13:31:21.531Z,977.78
2019-03-24T13:32:31.474Z,977.73
2019-03-24T13:33:41.402Z,977.71
2019-03-24T13:34:51.378Z,977.69
2019-03-24T13:36:01.308Z,977.66
2019-03-24T13:37:11.242Z,977.68
2019-03-24T13:38:21.165Z,977.72
2019-03-24T13:39:31.087Z,977.69
2019-03-24T13:40:41.108Z,977.7
2019-03-24T13:41:51.034Z,977.62
2019-03-24T13:43:00.973Z,977.63
2019-03-24T13:44:10.907Z,977.58
2019-03-24T13:45:20.833Z,977.52
2019-03-24T13:46:30.865Z,977.45
2019-03-24T13:47:40.816Z,977.48
2019-03-24T13:48:50.742Z,977.44
2019-03-24T13:50:00.682Z,977.44
2019-03-24T13:51:10.603Z,977.36
2019-03-24T13:52:20.589Z,977.33
2019-03-24T13:53:30.529Z,977.31
2019-03-24T13:54:40.459Z,977.29
2019-03-24T13:55:50.382Z,977.32
2019-03-24T13:57:00.387Z,977.25
2019-03-24T13:58:12.064Z,977.29
2019-03-24T13:59:22.151Z,977.28
2019-03-24T14:00:32.074Z,977.23
2019-03-24T14:01:42.002Z,977.22
2019-03-24T14:02:51.923Z,977.23
2019-03-24T14:04:01.853Z,977.2
2019-03-24T14:05:11.773Z,977.23
2019-03-24T14:06:21.703Z,977.26
2019-03-24T14:07:31.638Z,977.31
2019-03-24T14:08:41.558Z,977.26
2019-03-24T14:09:51.599Z,977.31
2019-03-24T14:11:01.519Z,977.32
2019-03-24T14:12:11.448Z,977.31
2019-03-24T14:13:21.376Z,977.35
2019-03-24T14:14:31.296Z,977.38
2019-03-24T14:15:41.322Z,977.37
2019-03-24T14:16:51.249Z,977.31
2019-03-24T14:18:01.174Z,977.24
2019-03-24T14:19:10.846Z,977.29
2019-03-24T14:20:20.766Z,977.19
2019-03-24T14:21:30.696Z,977.24
2019-03-24T14:22:40.379Z,977.14
2019-03-24T14:23:50.316Z,977.18
2019-03-24T14:25:00.387Z,977.12
2019-03-24T14:26:10.334Z,977.05
2019-03-24T14:27:20.304Z,977.05
2019-03-24T14:28:30.227Z,977.03
2019-03-24T14:29:40.169Z,977.06
2019-03-24T14:30:50.104Z,977.05
2019-03-24T14:32:00.049Z,977.09
2019-03-24T14:33:09.726Z,977.12
2019-03-24T14:34:19.660Z,977.09
2019-03-24T14:35:29.585Z,977.2
2019-03-24T14:36:39.503Z,977.12
2019-03-24T14:37:49.438Z,977.09